首页
METAR-TAF:

METAR-TAF

机场 :

Hawarden, 威尔士

纬度: 53-10N, 经度: 002-59W, 海拔: 10米

当前天气观测

该预报发布于3小时和42分钟前的19:20 UTC
风速5节,风向东南
温度 3°C
湿度 87%
气压 1029 hPa
能見度: 6000

METAR: EGNR 021920Z 14005KT 6000 NSC 03/01 Q1029

时间: 23:02 (23:02 UTC)

预报

该预报发布于6小时和1分钟前的17:01 UTC
预报有效从02日的 18点(UTC)到 02日的 21点(UTC)
风速9节,风向南转南东
能见度10公里或以上
少量云层高于4500英尺
短暂存在
从 02日的 18点(UTC)到 02日的 21点(UTC)
能見度: 9000

TAF: EGNR 021701Z 0218/0221 16009KT 9999 FEW045 TEMPO 0218/0221 9000

超过4000个机场的气象观测和天气预报(METAR&TAF报告)。

可查询的气象台以黄色和红色小点在地图上表示。

将鼠标移到小点上方,可查看气象台名称。

然后点击查看天气观测和预报。

如需切换地图:点击带黑十字的绿色按钮放大地图;点击带横线的绿色按钮缩小地图;或者点击绿色箭头查看邻近地区的地图。


METAR-TAF: